createdAt,value
2023-01-07T00:00:39.202Z,100376.00
2023-01-07T00:03:11.322Z,100372.31
2023-01-07T00:05:47.765Z,100374.00
2023-01-07T00:08:28.419Z,100373.53
2023-01-07T00:11:13.257Z,100382.38
2023-01-07T00:14:09.575Z,100388.28
2023-01-07T00:16:44.912Z,100388.09
2023-01-07T00:19:35.847Z,100394.47
2023-01-07T00:22:08.574Z,100392.78
2023-01-07T00:24:49.815Z,100393.63
2023-01-07T00:27:32.738Z,100393.63
2023-01-07T00:30:22.513Z,100397.47
2023-01-07T00:33:12.321Z,100394.31
2023-01-07T00:36:01.186Z,100396.47
2023-01-07T00:38:37.870Z,100390.63
2023-01-07T00:41:13.751Z,100393.44
2023-01-07T00:43:55.730Z,100396.66
2023-01-07T00:46:39.155Z,100391.13
2023-01-07T00:49:20.121Z,100397.31
2023-01-07T00:52:00.300Z,100398.66
2023-01-07T00:54:41.727Z,100394.47
2023-01-07T00:57:22.560Z,100391.97
2023-01-07T01:00:09.850Z,100394.16
2023-01-07T01:02:51.088Z,100394.47
2023-01-07T01:05:27.071Z,100401.19
2023-01-07T01:08:09.422Z,100391.47
2023-01-07T01:10:53.522Z,100396.50
2023-01-07T01:13:41.395Z,100398.97
2023-01-07T01:16:26.071Z,100395.81
2023-01-07T01:19:12.225Z,100406.19
2023-01-07T01:22:00.774Z,100405.19
2023-01-07T01:24:41.386Z,100397.50
2023-01-07T01:27:20.011Z,100401.84
2023-01-07T01:29:59.162Z,100402.19
2023-01-07T01:32:48.789Z,100403.53
2023-01-07T01:35:29.654Z,100403.53
2023-01-07T01:38:21.633Z,100399.81
2023-01-07T01:40:59.810Z,100395.81
2023-01-07T01:43:48.013Z,100400.50
2023-01-07T01:46:39.563Z,100397.81
2023-01-07T01:50:03.109Z,100407.19
2023-01-07T01:52:57.190Z,100402.16
2023-01-07T01:56:10.800Z,100395.78
2023-01-07T01:58:59.262Z,100385.88
2023-01-07T02:01:35.549Z,100386.75
2023-01-07T02:04:20.160Z,100374.38
2023-01-07T02:07:13.294Z,100380.56
2023-01-07T02:10:26.853Z,100366.13
2023-01-07T02:13:33.570Z,100363.13
2023-01-07T02:16:35.961Z,100355.97
2023-01-07T02:19:35.313Z,100346.88
2023-01-07T02:22:39.728Z,100355.97
2023-01-07T02:25:42.208Z,100346.75
2023-01-07T02:28:30.324Z,100347.91
2023-01-07T02:31:19.843Z,100342.22
2023-01-07T02:34:35.994Z,100341.56
2023-01-07T02:37:37.609Z,100347.59
2023-01-07T02:40:22.809Z,100343.25
2023-01-07T02:43:28.448Z,100352.63
2023-01-07T02:46:35.672Z,100351.28
2023-01-07T02:49:19.370Z,100356.97
2023-01-07T02:51:58.760Z,100350.44
2023-01-07T02:54:39.981Z,100357.81
2023-01-07T02:57:23.741Z,100359.00
2023-01-07T03:00:26.895Z,100361.81
2023-01-07T03:03:26.499Z,100353.31
2023-01-07T03:06:29.433Z,100356.81
2023-01-07T03:09:17.857Z,100349.28
2023-01-07T03:12:03.853Z,100348.28
2023-01-07T03:14:52.603Z,100343.91
2023-01-07T03:17:49.536Z,100347.09
2023-01-07T03:20:34.990Z,100337.56
2023-01-07T03:23:12.818Z,100339.56
2023-01-07T03:25:50.719Z,100334.22
2023-01-07T03:28:35.276Z,100335.72
2023-01-07T03:31:23.913Z,100338.56
2023-01-07T03:34:06.413Z,100338.56
2023-01-07T03:37:03.218Z,100343.44
2023-01-07T03:39:41.173Z,100340.09
2023-01-07T03:42:39.984Z,100337.72
2023-01-07T03:45:23.039Z,100333.69
2023-01-07T03:48:09.807Z,100339.88
2023-01-07T03:50:46.206Z,100327.84
2023-01-07T03:53:19.221Z,100338.13
2023-01-07T03:55:52.777Z,100339.16
2023-01-07T03:58:33.235Z,100338.59
2023-01-07T04:01:11.864Z,100338.91
2023-01-07T04:03:52.977Z,100334.69
2023-01-07T04:06:29.743Z,100332.31
2023-01-07T04:09:21.689Z,100337.94
2023-01-07T04:12:06.696Z,100342.38
2023-01-07T04:14:59.494Z,100337.00
2023-01-07T04:17:38.637Z,100342.41
2023-01-07T04:20:22.640Z,100345.03
2023-01-07T04:22:57.460Z,100341.31
2023-01-07T04:25:39.377Z,100338.72
2023-01-07T04:28:26.359Z,100353.53
2023-01-07T04:31:07.397Z,100346.06
2023-01-07T04:33:42.884Z,100352.34
2023-01-07T04:36:18.282Z,100354.75
2023-01-07T04:39:02.682Z,100346.63
2023-01-07T04:41:43.650Z,100345.81
2023-01-07T04:44:18.225Z,100350.44
2023-01-07T04:46:55.341Z,100348.63
2023-01-07T04:49:33.752Z,100359.50
2023-01-07T04:52:09.803Z,100349.28
2023-01-07T04:54:57.695Z,100345.28
2023-01-07T04:57:33.446Z,100341.69
2023-01-07T05:00:10.291Z,100342.50
2023-01-07T05:02:49.229Z,100350.00
2023-01-07T05:05:37.249Z,100352.78
2023-01-07T05:08:17.777Z,100342.19
2023-01-07T05:10:59.988Z,100342.03
2023-01-07T05:13:35.472Z,100338.16
2023-01-07T05:16:12.510Z,100345.47
2023-01-07T05:19:07.189Z,100345.59
2023-01-07T05:21:52.612Z,100336.69
2023-01-07T05:24:34.186Z,100342.16
2023-01-07T05:27:19.515Z,100344.34
2023-01-07T05:29:54.520Z,100349.38
2023-01-07T05:32:41.316Z,100349.69
2023-01-07T05:35:22.830Z,100352.47
2023-01-07T05:38:04.255Z,100358.53
2023-01-07T05:40:43.799Z,100349.44
2023-01-07T05:43:25.240Z,100348.44
2023-01-07T05:46:06.071Z,100343.09
2023-01-07T05:48:47.653Z,100348.75
2023-01-07T05:51:17.767Z,100355.72
2023-01-07T05:54:01.957Z,100363.41
2023-01-07T05:56:42.723Z,100362.13
2023-01-07T05:59:23.026Z,100372.53
2023-01-07T06:02:08.269Z,100364.00
2023-01-07T06:04:45.151Z,100366.50
2023-01-07T06:07:25.815Z,100364.00
2023-01-07T06:10:12.037Z,100360.50
2023-01-07T06:12:45.958Z,100353.34
2023-01-07T06:15:44.714Z,100354.63
2023-01-07T06:18:25.478Z,100349.38
2023-01-07T06:21:09.720Z,100359.38
2023-01-07T06:23:45.041Z,100361.88
2023-01-07T06:26:25.503Z,100357.72
2023-01-07T06:28:58.648Z,100353.50
2023-01-07T06:31:31.366Z,100345.09
2023-01-07T06:34:11.634Z,100349.84
2023-01-07T06:36:48.788Z,100343.09
2023-01-07T06:39:29.425Z,100334.59
2023-01-07T06:42:10.128Z,100338.97
2023-01-07T06:44:54.086Z,100351.16
2023-01-07T06:47:34.386Z,100358.16
2023-01-07T06:50:10.807Z,100359.53
2023-01-07T06:52:49.015Z,100369.91
2023-01-07T06:55:32.462Z,100372.13
2023-01-07T06:58:10.901Z,100382.44
2023-01-07T07:00:42.957Z,100382.78
2023-01-07T07:03:45.736Z,100392.16
2023-01-07T07:06:28.483Z,100387.13
2023-01-07T07:09:05.587Z,100389.88
2023-01-07T07:11:41.727Z,100384.34
2023-01-07T07:14:19.304Z,100387.78
2023-01-07T07:17:02.443Z,100383.72
2023-01-07T07:19:40.507Z,100373.00
2023-01-07T07:22:22.593Z,100379.34
2023-01-07T07:25:03.282Z,100383.53
2023-01-07T07:27:42.567Z,100383.97
2023-01-07T07:30:45.561Z,100383.72
2023-01-07T07:33:27.714Z,100384.56
2023-01-07T07:36:05.694Z,100382.94
2023-01-07T07:38:47.477Z,100391.03
2023-01-07T07:41:33.453Z,100399.41
2023-01-07T07:44:14.663Z,100396.09
2023-01-07T07:46:55.975Z,100402.16
2023-01-07T07:49:34.260Z,100404.56
2023-01-07T07:52:15.017Z,100399.34
2023-01-07T07:55:20.757Z,100393.91
2023-01-07T07:58:10.392Z,100398.59
2023-01-07T08:00:56.030Z,100389.91
2023-01-07T08:03:39.781Z,100388.22
2023-01-07T08:06:18.251Z,100390.63
2023-01-07T08:08:59.974Z,100392.66
2023-01-07T08:11:35.152Z,100388.00
2023-01-07T08:14:16.395Z,100383.19
2023-01-07T08:17:03.418Z,100388.06
2023-01-07T08:19:38.511Z,100383.56
2023-01-07T08:22:23.275Z,100384.44
2023-01-07T08:25:01.441Z,100383.75
2023-01-07T08:27:39.983Z,100387.44
2023-01-07T08:30:21.626Z,100392.13
2023-01-07T08:33:00.413Z,100386.09
2023-01-07T08:35:41.020Z,100387.91
2023-01-07T08:38:18.418Z,100392.72
2023-01-07T08:40:57.694Z,100393.34
2023-01-07T08:43:42.052Z,100392.69
2023-01-07T08:46:27.848Z,100393.66
2023-01-07T08:49:06.039Z,100395.69
2023-01-07T08:51:46.874Z,100390.63
2023-01-07T08:54:19.043Z,100387.25
2023-01-07T08:57:02.720Z,100401.00
2023-01-07T08:59:47.398Z,100398.13
2023-01-07T09:02:32.003Z,100389.88
2023-01-07T09:05:08.341Z,100389.34
2023-01-07T09:07:56.847Z,100383.50
2023-01-07T09:10:30.783Z,100383.84
2023-01-07T09:13:11.119Z,100381.94
2023-01-07T09:15:48.753Z,100385.78
2023-01-07T09:18:29.137Z,100391.16
2023-01-07T09:21:03.605Z,100392.75
2023-01-07T09:23:36.847Z,100395.50
2023-01-07T09:26:25.355Z,100401.22
2023-01-07T09:29:08.751Z,100393.28
2023-01-07T09:31:58.195Z,100392.91
2023-01-07T09:34:32.596Z,100380.03
2023-01-07T09:37:28.692Z,100379.56
2023-01-07T09:40:07.675Z,100371.78
2023-01-07T09:43:13.785Z,100368.88
2023-01-07T09:46:08.880Z,100361.94
2023-01-07T09:48:50.667Z,100360.72
2023-01-07T09:51:40.851Z,100357.50
2023-01-07T09:54:33.217Z,100356.44
2023-01-07T09:57:09.452Z,100351.88
2023-01-07T10:00:03.656Z,100352.22
2023-01-07T10:02:44.378Z,100356.44
2023-01-07T10:05:47.942Z,100345.59
2023-01-07T10:09:01.239Z,100349.63
2023-01-07T10:12:00.621Z,100339.00
2023-01-07T10:14:51.650Z,100337.41
2023-01-07T10:17:37.285Z,100330.78
2023-01-07T10:20:37.643Z,100331.41
2023-01-07T10:23:36.421Z,100323.16
2023-01-07T10:26:32.804Z,100314.50
2023-01-07T10:29:42.999Z,100314.41
2023-01-07T10:32:30.918Z,100314.63
2023-01-07T10:35:11.551Z,100319.22
2023-01-07T10:37:48.015Z,100315.28
2023-01-07T10:40:45.515Z,100314.75
2023-01-07T10:44:00.089Z,100309.84
2023-01-07T10:47:14.926Z,100310.69
2023-01-07T10:50:30.753Z,100304.88
2023-01-07T10:53:25.439Z,100292.84
2023-01-07T10:56:09.791Z,100295.13
2023-01-07T10:58:57.931Z,100293.94
2023-01-07T11:01:45.543Z,100290.63
2023-01-07T11:04:24.642Z,100286.66
2023-01-07T11:07:35.163Z,100278.84
2023-01-07T11:10:20.502Z,100280.75
2023-01-07T11:13:16.253Z,100273.44
2023-01-07T11:16:14.029Z,100282.56
2023-01-07T11:19:16.601Z,100283.00
2023-01-07T11:21:51.790Z,100279.28
2023-01-07T11:24:36.230Z,100276.34
2023-01-07T11:27:33.704Z,100273.88
2023-01-07T11:30:33.914Z,100270.16
2023-01-07T11:34:02.305Z,100263.53
2023-01-07T11:36:55.794Z,100264.78
2023-01-07T11:39:32.898Z,100261.03
2023-01-07T11:42:40.548Z,100262.72
2023-01-07T11:45:30.023Z,100248.34
2023-01-07T11:48:24.536Z,100255.22
2023-01-07T11:51:05.967Z,100255.81
2023-01-07T11:53:56.748Z,100245.66
2023-01-07T11:56:35.920Z,100249.38
2023-01-07T11:59:26.008Z,100248.34
2023-01-07T12:02:07.250Z,100243.78
2023-01-07T12:04:53.348Z,100237.53
2023-01-07T12:07:30.911Z,100234.84
2023-01-07T12:10:06.232Z,100228.16
2023-01-07T12:12:48.239Z,100221.09
2023-01-07T12:15:37.602Z,100221.91
2023-01-07T12:18:49.472Z,100222.13
2023-01-07T12:21:58.199Z,100220.47
2023-01-07T12:24:59.580Z,100217.16
2023-01-07T12:27:56.772Z,100217.34
2023-01-07T12:31:30.628Z,100215.69
2023-01-07T12:34:30.005Z,100219.63
2023-01-07T12:37:11.110Z,100211.75
2023-01-07T12:40:07.306Z,100211.53
2023-01-07T12:42:52.242Z,100215.69
2023-01-07T12:46:00.399Z,100210.09
2023-01-07T12:48:59.174Z,100207.19
2023-01-07T12:52:01.252Z,100204.88
2023-01-07T12:54:53.258Z,100207.59
2023-01-07T12:57:45.771Z,100204.88
2023-01-07T13:00:34.646Z,100202.81
2023-01-07T13:03:47.323Z,100205.94
2023-01-07T13:06:55.483Z,100198.47
2023-01-07T13:09:45.970Z,100193.25
2023-01-07T13:12:45.594Z,100196.13
2023-01-07T13:15:37.766Z,100197.81
2023-01-07T13:18:27.607Z,100190.94
2023-01-07T13:21:17.698Z,100194.47
2023-01-07T13:24:54.835Z,100200.09
2023-01-07T13:27:43.639Z,100191.38
2023-01-07T13:30:42.025Z,100188.22
2023-01-07T13:33:42.320Z,100193.84
2023-01-07T13:36:37.227Z,100186.16
2023-01-07T13:39:58.829Z,100178.63
2023-01-07T13:43:05.087Z,100176.78
2023-01-07T13:45:49.159Z,100168.84
2023-01-07T13:48:34.778Z,100179.84
2023-01-07T13:51:17.911Z,100180.50
2023-01-07T13:54:15.637Z,100176.97
2023-01-07T13:57:02.086Z,100189.22
2023-01-07T14:00:02.644Z,100188.16
2023-01-07T14:03:02.201Z,100184.16
2023-01-07T14:05:37.687Z,100193.94
2023-01-07T14:08:21.662Z,100183.91
2023-01-07T14:11:01.543Z,100189.69
2023-01-07T14:14:29.145Z,100191.75
2023-01-07T14:17:42.994Z,100197.13
2023-01-07T14:20:33.536Z,100189.16
2023-01-07T14:23:44.508Z,100182.44
2023-01-07T14:26:42.639Z,100196.91
2023-01-07T14:29:45.544Z,100191.22
2023-01-07T14:32:34.434Z,100190.94
2023-01-07T14:35:40.598Z,100195.31
2023-01-07T14:38:36.756Z,100191.75
2023-01-07T14:41:19.379Z,100199.00
2023-01-07T14:44:12.736Z,100200.25
2023-01-07T14:46:50.094Z,100199.63
2023-01-07T14:50:18.359Z,100201.41
2023-01-07T14:52:57.634Z,100199.47
2023-01-07T14:55:41.536Z,100202.84
2023-01-07T14:58:32.396Z,100199.84
2023-01-07T15:01:47.030Z,100196.63
2023-01-07T15:05:13.093Z,100192.19
2023-01-07T15:08:19.962Z,100197.47
2023-01-07T15:11:35.348Z,100190.53
2023-01-07T15:15:00.811Z,100193.22
2023-01-07T15:17:48.139Z,100195.09
2023-01-07T15:20:39.445Z,100198.56
2023-01-07T15:23:31.415Z,100209.38
2023-01-07T15:26:33.723Z,100224.25
2023-01-07T15:29:33.680Z,100208.41
2023-01-07T15:32:34.762Z,100212.13
2023-01-07T15:35:30.915Z,100214.44
2023-01-07T15:38:44.231Z,100213.84
2023-01-07T15:41:39.093Z,100224.19
2023-01-07T15:44:31.229Z,100220.22
2023-01-07T15:47:35.713Z,100216.78
2023-01-07T15:50:33.862Z,100210.34
2023-01-07T15:53:18.641Z,100209.47
2023-01-07T15:56:18.393Z,100207.00
2023-01-07T15:59:02.005Z,100210.03
2023-01-07T16:01:47.897Z,100210.38
2023-01-07T16:04:36.117Z,100208.72
2023-01-07T16:07:29.676Z,100203.06
2023-01-07T16:10:09.346Z,100201.22
2023-01-07T16:13:01.124Z,100205.03
2023-01-07T16:15:59.396Z,100198.34
2023-01-07T16:18:39.789Z,100203.00
2023-01-07T16:21:19.419Z,100206.31
2023-01-07T16:23:58.029Z,100201.63
2023-01-07T16:26:40.695Z,100202.94
2023-01-07T16:29:29.896Z,100209.66
2023-01-07T16:32:05.611Z,100207.28
2023-01-07T16:34:54.594Z,100212.47
2023-01-07T16:37:37.665Z,100210.47
2023-01-07T16:40:37.988Z,100201.59
2023-01-07T16:43:46.979Z,100199.78
2023-01-07T16:46:42.916Z,100207.53
2023-01-07T16:49:26.739Z,100210.69
2023-01-07T16:52:14.230Z,100215.69
2023-01-07T16:54:57.318Z,100209.34
2023-01-07T16:57:48.117Z,100206.47
2023-01-07T17:00:34.910Z,100213.38
2023-01-07T17:03:18.103Z,100206.72
2023-01-07T17:06:16.999Z,100208.53
2023-01-07T17:08:56.745Z,100196.63
2023-01-07T17:11:39.686Z,100217.19
2023-01-07T17:14:39.881Z,100228.06
2023-01-07T17:17:36.671Z,100221.56
2023-01-07T17:20:35.704Z,100227.25
2023-01-07T17:23:33.135Z,100224.44
2023-01-07T17:26:25.961Z,100234.81
2023-01-07T17:29:12.984Z,100231.41
2023-01-07T17:31:53.524Z,100239.97
2023-01-07T17:34:38.915Z,100226.09
2023-01-07T17:37:21.567Z,100240.13
2023-01-07T17:40:08.666Z,100237.75
2023-01-07T17:43:06.219Z,100230.16
2023-01-07T17:45:49.683Z,100237.41
2023-01-07T17:48:29.014Z,100238.41
2023-01-07T17:51:07.354Z,100239.78
2023-01-07T17:53:52.832Z,100234.25
2023-01-07T17:56:34.024Z,100232.88
2023-01-07T17:59:09.873Z,100226.00
2023-01-07T18:01:51.385Z,100233.38
2023-01-07T18:04:36.774Z,100231.88
2023-01-07T18:07:22.204Z,100240.88
2023-01-07T18:10:01.522Z,100246.56
2023-01-07T18:12:49.862Z,100240.41
2023-01-07T18:15:36.346Z,100236.72
2023-01-07T18:18:14.106Z,100234.69
2023-01-07T18:21:00.291Z,100229.81
2023-01-07T18:23:49.200Z,100236.56
2023-01-07T18:26:25.975Z,100238.69
2023-01-07T18:29:07.619Z,100245.03
2023-01-07T18:31:51.791Z,100243.34
2023-01-07T18:34:37.347Z,100238.53
2023-01-07T18:37:18.628Z,100241.41
2023-01-07T18:40:07.963Z,100235.72
2023-01-07T18:42:49.906Z,100232.72
2023-01-07T18:45:24.327Z,100236.22
2023-01-07T18:48:05.110Z,100230.16
2023-01-07T18:50:49.363Z,100236.50
2023-01-07T18:53:31.669Z,100234.66
2023-01-07T18:56:12.669Z,100230.50
2023-01-07T18:58:55.242Z,100231.13
2023-01-07T19:01:39.030Z,100232.28
2023-01-07T19:04:28.258Z,100229.81
2023-01-07T19:07:08.919Z,100224.47
2023-01-07T19:09:49.440Z,100221.13
2023-01-07T19:12:36.245Z,100221.56
2023-01-07T19:15:20.801Z,100219.09
2023-01-07T19:18:04.986Z,100208.53
2023-01-07T19:20:56.675Z,100202.69
2023-01-07T19:23:43.016Z,100214.72
2023-01-07T19:26:20.908Z,100219.22
2023-01-07T19:29:01.321Z,100220.19
2023-01-07T19:31:46.592Z,100211.06
2023-01-07T19:34:28.712Z,100215.38
2023-01-07T19:37:01.612Z,100215.25
2023-01-07T19:39:42.516Z,100217.78
2023-01-07T19:42:28.107Z,100209.56
2023-01-07T19:45:09.970Z,100212.34
2023-01-07T19:47:50.717Z,100213.41
2023-01-07T19:50:26.717Z,100220.09
2023-01-07T19:53:06.319Z,100216.56
2023-01-07T19:55:52.844Z,100212.88
2023-01-07T19:58:34.398Z,100211.16
2023-01-07T20:01:16.880Z,100216.47
2023-01-07T20:03:59.321Z,100210.59
2023-01-07T20:06:48.076Z,100209.50
2023-01-07T20:09:35.510Z,100215.34
2023-01-07T20:12:08.215Z,100205.81
2023-01-07T20:15:04.437Z,100199.63
2023-01-07T20:17:43.265Z,100200.03
2023-01-07T20:20:15.768Z,100205.16
2023-01-07T20:22:55.661Z,100202.25
2023-01-07T20:25:40.712Z,100195.03
2023-01-07T20:28:18.514Z,100200.75
2023-01-07T20:30:50.037Z,100204.09
2023-01-07T20:33:37.095Z,100192.72
2023-01-07T20:36:19.164Z,100194.09
2023-01-07T20:39:03.283Z,100195.09
2023-01-07T20:41:43.607Z,100187.34
2023-01-07T20:44:29.001Z,100190.53
2023-01-07T20:47:08.193Z,100190.69
2023-01-07T20:49:40.655Z,100181.97
2023-01-07T20:52:31.230Z,100183.94
2023-01-07T20:55:07.576Z,100179.34
2023-01-07T20:57:41.047Z,100180.16
2023-01-07T21:00:22.292Z,100172.69
2023-01-07T21:02:55.224Z,100171.88
2023-01-07T21:05:32.893Z,100175.94
2023-01-07T21:08:12.995Z,100173.25
2023-01-07T21:10:56.390Z,100170.53
2023-01-07T21:13:32.775Z,100165.47
2023-01-07T21:16:14.489Z,100170.00
2023-01-07T21:18:44.363Z,100160.28
2023-01-07T21:21:26.669Z,100157.13
2023-01-07T21:24:17.284Z,100154.69
2023-01-07T21:27:07.695Z,100151.34
2023-01-07T21:29:45.674Z,100164.75
2023-01-07T21:32:26.414Z,100153.13
2023-01-07T21:35:01.980Z,100153.97
2023-01-07T21:37:39.628Z,100149.03
2023-01-07T21:40:14.929Z,100152.00
2023-01-07T21:42:55.709Z,100151.41
2023-01-07T21:45:40.975Z,100146.75
2023-01-07T21:48:33.667Z,100149.38
2023-01-07T21:51:16.438Z,100151.53
2023-01-07T21:54:00.216Z,100155.72
2023-01-07T21:56:36.592Z,100155.41
2023-01-07T21:59:17.101Z,100152.38
2023-01-07T22:01:55.532Z,100148.94
2023-01-07T22:04:40.820Z,100147.81
2023-01-07T22:07:25.995Z,100145.69
2023-01-07T22:10:09.899Z,100144.38
2023-01-07T22:12:52.730Z,100139.84
2023-01-07T22:15:34.163Z,100146.88
2023-01-07T22:18:15.592Z,100141.69
2023-01-07T22:21:04.242Z,100137.34
2023-01-07T22:23:46.629Z,100143.19
2023-01-07T22:26:28.459Z,100133.97
2023-01-07T22:29:18.658Z,100128.69
2023-01-07T22:31:56.065Z,100133.06
2023-01-07T22:34:42.011Z,100121.94
2023-01-07T22:37:26.755Z,100123.22
2023-01-07T22:40:21.566Z,100119.81
2023-01-07T22:43:01.166Z,100113.63
2023-01-07T22:45:43.222Z,100103.00
2023-01-07T22:48:31.661Z,100105.44
2023-01-07T22:51:17.319Z,100096.97
2023-01-07T22:53:59.540Z,100099.75
2023-01-07T22:56:35.331Z,100105.94
2023-01-07T22:59:08.067Z,100097.06
2023-01-07T23:01:47.612Z,100097.06
2023-01-07T23:04:32.056Z,100097.59
2023-01-07T23:07:10.732Z,100101.78
2023-01-07T23:09:51.637Z,100096.13
2023-01-07T23:12:32.334Z,100090.53
2023-01-07T23:15:12.961Z,100093.59
2023-01-07T23:18:00.317Z,100091.22
2023-01-07T23:20:47.503Z,100084.06
2023-01-07T23:23:28.155Z,100084.06
2023-01-07T23:26:09.639Z,100077.03
2023-01-07T23:28:44.951Z,100074.53
2023-01-07T23:31:22.142Z,100068.59
2023-01-07T23:34:03.443Z,100066.09
2023-01-07T23:36:46.624Z,100063.16
2023-01-07T23:39:29.842Z,100054.09
2023-01-07T23:42:10.405Z,100056.78
2023-01-07T23:44:53.986Z,100054.75
2023-01-07T23:47:32.158Z,100055.47
2023-01-07T23:50:12.962Z,100055.06
2023-01-07T23:52:53.151Z,100054.84
2023-01-07T23:55:47.934Z,100069.09
2023-01-07T23:58:24.628Z,100060.19
